sensor_id;sensor_type;location;lat;lon;timestamp;P1;durP1;ratioP1;P2;durP2;ratioP2
31004;SDS011;17676;52.254;4.490;2024-03-06T00:02:21;35.97;;;28.52;;
31004;SDS011;17676;52.254;4.490;2024-03-06T00:04:48;37.78;;;29.08;;
31004;SDS011;17676;52.254;4.490;2024-03-06T00:07:15;35.50;;;27.85;;
31004;SDS011;17676;52.254;4.490;2024-03-06T00:09:42;34.88;;;27.10;;
31004;SDS011;17676;52.254;4.490;2024-03-06T00:12:09;32.92;;;26.95;;
31004;SDS011;17676;52.254;4.490;2024-03-06T00:14:36;35.97;;;26.65;;
31004;SDS011;17676;52.254;4.490;2024-03-06T00:17:03;34.60;;;28.58;;
31004;SDS011;17676;52.254;4.490;2024-03-06T00:19:33;36.33;;;28.55;;
31004;SDS011;17676;52.254;4.490;2024-03-06T00:22:01;32.80;;;27.02;;
31004;SDS011;17676;52.254;4.490;2024-03-06T00:24:28;37.55;;;28.05;;
31004;SDS011;17676;52.254;4.490;2024-03-06T00:26:55;32.80;;;26.60;;
31004;SDS011;17676;52.254;4.490;2024-03-06T00:29:22;34.47;;;27.75;;
31004;SDS011;17676;52.254;4.490;2024-03-06T00:31:49;36.58;;;28.40;;
31004;SDS011;17676;52.254;4.490;2024-03-06T00:34:16;37.65;;;29.80;;
31004;SDS011;17676;52.254;4.490;2024-03-06T00:36:42;40.00;;;31.27;;
31004;SDS011;17676;52.254;4.490;2024-03-06T00:39:12;35.95;;;29.27;;
31004;SDS011;17676;52.254;4.490;2024-03-06T00:41:42;38.78;;;31.17;;
31004;SDS011;17676;52.254;4.490;2024-03-06T00:44:08;37.35;;;30.30;;
31004;SDS011;17676;52.254;4.490;2024-03-06T00:46:35;36.55;;;29.08;;
31004;SDS011;17676;52.254;4.490;2024-03-06T00:49:02;36.22;;;30.77;;
31004;SDS011;17676;52.254;4.490;2024-03-06T00:51:29;36.70;;;30.55;;
31004;SDS011;17676;52.254;4.490;2024-03-06T00:54:09;36.70;;;29.83;;
31004;SDS011;17676;52.254;4.490;2024-03-06T00:56:37;36.72;;;29.40;;
31004;SDS011;17676;52.254;4.490;2024-03-06T00:59:05;35.55;;;28.58;;
31004;SDS011;17676;52.254;4.490;2024-03-06T01:01:32;36.55;;;28.65;;
31004;SDS011;17676;52.254;4.490;2024-03-06T01:03:58;33.67;;;27.67;;
31004;SDS011;17676;52.254;4.490;2024-03-06T01:06:25;35.28;;;28.70;;
31004;SDS011;17676;52.254;4.490;2024-03-06T01:08:52;34.95;;;27.83;;
31004;SDS011;17676;52.254;4.490;2024-03-06T01:11:19;38.90;;;28.13;;
31004;SDS011;17676;52.254;4.490;2024-03-06T01:13:46;36.33;;;28.00;;
31004;SDS011;17676;52.254;4.490;2024-03-06T01:16:12;38.63;;;28.73;;
31004;SDS011;17676;52.254;4.490;2024-03-06T01:18:39;35.72;;;28.83;;
31004;SDS011;17676;52.254;4.490;2024-03-06T01:21:06;37.13;;;28.42;;
31004;SDS011;17676;52.254;4.490;2024-03-06T01:23:32;45.40;;;31.35;;
31004;SDS011;17676;52.254;4.490;2024-03-06T01:25:59;40.42;;;31.10;;
31004;SDS011;17676;52.254;4.490;2024-03-06T01:28:26;39.72;;;29.63;;
31004;SDS011;17676;52.254;4.490;2024-03-06T01:30:52;41.45;;;32.47;;
31004;SDS011;17676;52.254;4.490;2024-03-06T01:33:19;39.45;;;31.25;;
31004;SDS011;17676;52.254;4.490;2024-03-06T01:35:46;44.72;;;34.13;;
31004;SDS011;17676;52.254;4.490;2024-03-06T01:38:15;44.72;;;33.05;;
31004;SDS011;17676;52.254;4.490;2024-03-06T01:40:43;42.42;;;32.70;;
31004;SDS011;17676;52.254;4.490;2024-03-06T01:43:20;39.53;;;32.13;;
31004;SDS011;17676;52.254;4.490;2024-03-06T01:45:49;40.17;;;32.42;;
31004;SDS011;17676;52.254;4.490;2024-03-06T01:48:16;45.58;;;35.05;;
31004;SDS011;17676;52.254;4.490;2024-03-06T01:50:46;40.70;;;32.78;;
31004;SDS011;17676;52.254;4.490;2024-03-06T01:53:14;46.95;;;35.30;;
31004;SDS011;17676;52.254;4.490;2024-03-06T01:55:42;49.83;;;35.22;;
31004;SDS011;17676;52.254;4.490;2024-03-06T01:58:09;47.53;;;36.30;;
31004;SDS011;17676;52.254;4.490;2024-03-06T02:00:36;49.08;;;39.08;;
31004;SDS011;17676;52.254;4.490;2024-03-06T02:03:03;47.65;;;38.75;;
31004;SDS011;17676;52.254;4.490;2024-03-06T02:05:30;48.65;;;37.92;;
31004;SDS011;17676;52.254;4.490;2024-03-06T02:07:58;48.35;;;36.58;;
31004;SDS011;17676;52.254;4.490;2024-03-06T02:10:27;49.00;;;38.05;;
31004;SDS011;17676;52.254;4.490;2024-03-06T02:12:54;52.75;;;39.15;;
31004;SDS011;17676;52.254;4.490;2024-03-06T02:15:21;48.60;;;37.88;;
31004;SDS011;17676;52.254;4.490;2024-03-06T02:17:48;45.75;;;37.72;;
31004;SDS011;17676;52.254;4.490;2024-03-06T02:20:15;46.35;;;38.50;;
31004;SDS011;17676;52.254;4.490;2024-03-06T02:22:42;49.40;;;38.15;;
31004;SDS011;17676;52.254;4.490;2024-03-06T02:25:09;46.83;;;37.03;;
31004;SDS011;17676;52.254;4.490;2024-03-06T02:27:38;45.67;;;38.60;;
31004;SDS011;17676;52.254;4.490;2024-03-06T02:30:04;47.90;;;37.42;;
31004;SDS011;17676;52.254;4.490;2024-03-06T02:32:32;51.25;;;40.10;;
31004;SDS011;17676;52.254;4.490;2024-03-06T02:35:00;48.83;;;39.97;;
31004;SDS011;17676;52.254;4.490;2024-03-06T02:37:29;48.20;;;38.60;;
31004;SDS011;17676;52.254;4.490;2024-03-06T02:39:55;49.35;;;38.63;;
31004;SDS011;17676;52.254;4.490;2024-03-06T02:42:22;52.03;;;39.55;;
31004;SDS011;17676;52.254;4.490;2024-03-06T02:44:49;44.70;;;36.45;;
31004;SDS011;17676;52.254;4.490;2024-03-06T02:47:15;47.35;;;37.97;;
31004;SDS011;17676;52.254;4.490;2024-03-06T02:49:42;43.33;;;37.17;;
31004;SDS011;17676;52.254;4.490;2024-03-06T02:52:09;45.38;;;37.75;;
31004;SDS011;17676;52.254;4.490;2024-03-06T02:54:36;44.95;;;36.53;;
31004;SDS011;17676;52.254;4.490;2024-03-06T02:57:02;44.13;;;36.97;;
31004;SDS011;17676;52.254;4.490;2024-03-06T02:59:29;42.95;;;36.75;;
31004;SDS011;17676;52.254;4.490;2024-03-06T03:01:56;46.80;;;37.22;;
31004;SDS011;17676;52.254;4.490;2024-03-06T03:04:23;42.78;;;36.47;;
31004;SDS011;17676;52.254;4.490;2024-03-06T03:06:49;44.03;;;36.03;;
31004;SDS011;17676;52.254;4.490;2024-03-06T03:09:16;41.58;;;35.53;;
31004;SDS011;17676;52.254;4.490;2024-03-06T03:11:43;47.00;;;38.50;;
31004;SDS011;17676;52.254;4.490;2024-03-06T03:14:12;44.90;;;37.75;;
31004;SDS011;17676;52.254;4.490;2024-03-06T03:16:53;43.95;;;37.47;;
31004;SDS011;17676;52.254;4.490;2024-03-06T03:19:20;48.08;;;38.10;;
31004;SDS011;17676;52.254;4.490;2024-03-06T03:21:46;46.10;;;38.05;;
31004;SDS011;17676;52.254;4.490;2024-03-06T03:24:15;45.67;;;38.40;;
31004;SDS011;17676;52.254;4.490;2024-03-06T03:26:42;45.65;;;37.10;;
31004;SDS011;17676;52.254;4.490;2024-03-06T03:29:12;41.45;;;36.15;;
31004;SDS011;17676;52.254;4.490;2024-03-06T03:31:39;43.22;;;37.20;;
31004;SDS011;17676;52.254;4.490;2024-03-06T03:34:05;44.58;;;37.20;;
31004;SDS011;17676;52.254;4.490;2024-03-06T03:36:32;46.88;;;39.83;;
31004;SDS011;17676;52.254;4.490;2024-03-06T03:38:59;47.50;;;39.13;;
31004;SDS011;17676;52.254;4.490;2024-03-06T03:41:26;47.00;;;39.85;;
31004;SDS011;17676;52.254;4.490;2024-03-06T03:43:53;48.00;;;39.22;;
31004;SDS011;17676;52.254;4.490;2024-03-06T03:46:20;45.28;;;37.70;;
31004;SDS011;17676;52.254;4.490;2024-03-06T03:48:46;46.33;;;38.17;;
31004;SDS011;17676;52.254;4.490;2024-03-06T03:51:13;45.30;;;38.95;;
31004;SDS011;17676;52.254;4.490;2024-03-06T03:53:40;48.75;;;38.97;;
31004;SDS011;17676;52.254;4.490;2024-03-06T03:56:07;46.13;;;39.75;;
31004;SDS011;17676;52.254;4.490;2024-03-06T03:58:34;46.13;;;39.05;;
31004;SDS011;17676;52.254;4.490;2024-03-06T04:01:01;45.47;;;40.22;;
31004;SDS011;17676;52.254;4.490;2024-03-06T04:03:27;44.83;;;38.90;;
31004;SDS011;17676;52.254;4.490;2024-03-06T04:05:54;43.00;;;37.85;;
31004;SDS011;17676;52.254;4.490;2024-03-06T04:08:21;42.33;;;37.40;;
31004;SDS011;17676;52.254;4.490;2024-03-06T04:10:47;42.08;;;36.60;;
31004;SDS011;17676;52.254;4.490;2024-03-06T04:13:15;43.05;;;37.35;;
31004;SDS011;17676;52.254;4.490;2024-03-06T04:15:42;41.78;;;36.05;;
31004;SDS011;17676;52.254;4.490;2024-03-06T04:18:11;46.13;;;38.05;;
31004;SDS011;17676;52.254;4.490;2024-03-06T04:20:38;44.35;;;39.25;;
31004;SDS011;17676;52.254;4.490;2024-03-06T04:23:08;44.38;;;38.38;;
31004;SDS011;17676;52.254;4.490;2024-03-06T04:25:35;42.72;;;36.70;;
31004;SDS011;17676;52.254;4.490;2024-03-06T04:28:01;42.97;;;37.95;;
31004;SDS011;17676;52.254;4.490;2024-03-06T04:30:28;43.10;;;37.15;;
31004;SDS011;17676;52.254;4.490;2024-03-06T04:32:55;44.28;;;36.92;;
31004;SDS011;17676;52.254;4.490;2024-03-06T04:35:22;46.72;;;40.47;;
31004;SDS011;17676;52.254;4.490;2024-03-06T04:37:48;45.00;;;38.10;;
31004;SDS011;17676;52.254;4.490;2024-03-06T04:40:15;45.15;;;38.67;;
31004;SDS011;17676;52.254;4.490;2024-03-06T04:42:47;43.38;;;37.97;;
31004;SDS011;17676;52.254;4.490;2024-03-06T04:45:17;42.17;;;37.03;;
31004;SDS011;17676;52.254;4.490;2024-03-06T04:47:44;42.03;;;36.90;;
31004;SDS011;17676;52.254;4.490;2024-03-06T04:50:11;43.28;;;37.75;;
31004;SDS011;17676;52.254;4.490;2024-03-06T04:52:41;43.97;;;39.05;;
31004;SDS011;17676;52.254;4.490;2024-03-06T04:55:08;45.15;;;37.90;;
31004;SDS011;17676;52.254;4.490;2024-03-06T04:57:42;43.65;;;37.72;;
31004;SDS011;17676;52.254;4.490;2024-03-06T05:00:10;40.33;;;36.00;;
31004;SDS011;17676;52.254;4.490;2024-03-06T05:02:38;41.75;;;36.60;;
31004;SDS011;17676;52.254;4.490;2024-03-06T05:05:22;42.20;;;37.70;;
31004;SDS011;17676;52.254;4.490;2024-03-06T05:08:07;41.42;;;36.83;;
31004;SDS011;17676;52.254;4.490;2024-03-06T05:10:51;41.95;;;36.72;;
31004;SDS011;17676;52.254;4.490;2024-03-06T05:13:35;44.25;;;36.15;;
31004;SDS011;17676;52.254;4.490;2024-03-06T05:16:19;42.38;;;36.17;;
31004;SDS011;17676;52.254;4.490;2024-03-06T05:19:06;41.67;;;37.00;;
31004;SDS011;17676;52.254;4.490;2024-03-06T05:21:50;41.08;;;36.17;;
31004;SDS011;17676;52.254;4.490;2024-03-06T05:24:35;42.75;;;35.95;;
31004;SDS011;17676;52.254;4.490;2024-03-06T05:27:19;44.80;;;37.78;;
31004;SDS011;17676;52.254;4.490;2024-03-06T05:30:04;40.13;;;35.28;;
31004;SDS011;17676;52.254;4.490;2024-03-06T05:32:48;42.97;;;36.10;;
31004;SDS011;17676;52.254;4.490;2024-03-06T05:35:33;43.15;;;35.80;;
31004;SDS011;17676;52.254;4.490;2024-03-06T05:38:17;44.90;;;37.65;;
31004;SDS011;17676;52.254;4.490;2024-03-06T05:41:02;41.50;;;36.13;;
31004;SDS011;17676;52.254;4.490;2024-03-06T05:43:47;41.75;;;37.03;;
31004;SDS011;17676;52.254;4.490;2024-03-06T05:46:31;38.83;;;34.65;;
31004;SDS011;17676;52.254;4.490;2024-03-06T05:49:16;40.72;;;35.63;;
31004;SDS011;17676;52.254;4.490;2024-03-06T05:52:00;44.65;;;36.28;;
31004;SDS011;17676;52.254;4.490;2024-03-06T05:54:44;38.17;;;34.03;;
31004;SDS011;17676;52.254;4.490;2024-03-06T05:57:28;42.63;;;38.00;;
31004;SDS011;17676;52.254;4.490;2024-03-06T06:00:12;42.38;;;36.63;;
31004;SDS011;17676;52.254;4.490;2024-03-06T06:02:39;42.30;;;37.67;;
31004;SDS011;17676;52.254;4.490;2024-03-06T06:05:06;42.80;;;37.50;;
31004;SDS011;17676;52.254;4.490;2024-03-06T06:07:49;42.42;;;37.45;;
31004;SDS011;17676;52.254;4.490;2024-03-06T06:10:18;46.05;;;37.75;;
31004;SDS011;17676;52.254;4.490;2024-03-06T06:12:47;47.85;;;39.10;;
31004;SDS011;17676;52.254;4.490;2024-03-06T06:15:15;45.83;;;37.58;;
31004;SDS011;17676;52.254;4.490;2024-03-06T06:17:42;44.72;;;38.08;;
31004;SDS011;17676;52.254;4.490;2024-03-06T06:20:11;43.35;;;37.80;;
31004;SDS011;17676;52.254;4.490;2024-03-06T06:22:41;43.78;;;37.58;;
31004;SDS011;17676;52.254;4.490;2024-03-06T06:25:08;45.22;;;37.38;;
31004;SDS011;17676;52.254;4.490;2024-03-06T06:27:36;44.95;;;37.40;;
31004;SDS011;17676;52.254;4.490;2024-03-06T06:30:05;44.17;;;38.17;;
31004;SDS011;17676;52.254;4.490;2024-03-06T06:32:33;42.95;;;38.25;;
31004;SDS011;17676;52.254;4.490;2024-03-06T06:35:00;47.67;;;38.97;;
31004;SDS011;17676;52.254;4.490;2024-03-06T06:37:27;48.50;;;39.70;;
31004;SDS011;17676;52.254;4.490;2024-03-06T06:39:54;48.00;;;39.55;;
31004;SDS011;17676;52.254;4.490;2024-03-06T06:42:20;48.35;;;40.67;;
31004;SDS011;17676;52.254;4.490;2024-03-06T06:44:47;44.13;;;39.10;;
31004;SDS011;17676;52.254;4.490;2024-03-06T06:47:14;47.88;;;41.13;;
31004;SDS011;17676;52.254;4.490;2024-03-06T06:49:40;43.78;;;37.90;;
31004;SDS011;17676;52.254;4.490;2024-03-06T06:52:07;47.03;;;40.03;;
31004;SDS011;17676;52.254;4.490;2024-03-06T06:54:34;46.45;;;40.30;;
31004;SDS011;17676;52.254;4.490;2024-03-06T06:57:01;47.03;;;41.33;;
31004;SDS011;17676;52.254;4.490;2024-03-06T06:59:29;48.78;;;40.92;;
31004;SDS011;17676;52.254;4.490;2024-03-06T07:01:56;47.97;;;40.40;;
31004;SDS011;17676;52.254;4.490;2024-03-06T07:04:23;47.97;;;38.10;;
31004;SDS011;17676;52.254;4.490;2024-03-06T07:06:50;47.00;;;39.08;;
31004;SDS011;17676;52.254;4.490;2024-03-06T07:09:18;46.58;;;40.25;;
31004;SDS011;17676;52.254;4.490;2024-03-06T07:11:45;53.95;;;42.40;;
31004;SDS011;17676;52.254;4.490;2024-03-06T07:14:12;51.63;;;40.97;;
31004;SDS011;17676;52.254;4.490;2024-03-06T07:16:43;43.53;;;38.83;;
31004;SDS011;17676;52.254;4.490;2024-03-06T07:19:10;45.40;;;40.47;;
31004;SDS011;17676;52.254;4.490;2024-03-06T07:21:37;47.30;;;39.78;;
31004;SDS011;17676;52.254;4.490;2024-03-06T07:24:04;49.88;;;40.63;;
31004;SDS011;17676;52.254;4.490;2024-03-06T07:26:32;47.55;;;40.10;;
31004;SDS011;17676;52.254;4.490;2024-03-06T07:28:59;46.80;;;39.60;;
31004;SDS011;17676;52.254;4.490;2024-03-06T07:31:27;43.63;;;38.85;;
31004;SDS011;17676;52.254;4.490;2024-03-06T07:33:53;45.70;;;39.70;;
31004;SDS011;17676;52.254;4.490;2024-03-06T07:36:20;43.67;;;37.30;;
31004;SDS011;17676;52.254;4.490;2024-03-06T07:38:48;43.25;;;37.03;;
31004;SDS011;17676;52.254;4.490;2024-03-06T07:41:14;44.42;;;38.20;;
31004;SDS011;17676;52.254;4.490;2024-03-06T07:43:41;40.03;;;35.70;;
31004;SDS011;17676;52.254;4.490;2024-03-06T07:46:08;40.25;;;35.92;;
31004;SDS011;17676;52.254;4.490;2024-03-06T07:48:37;40.03;;;35.50;;
31004;SDS011;17676;52.254;4.490;2024-03-06T07:51:04;39.45;;;35.20;;
31004;SDS011;17676;52.254;4.490;2024-03-06T07:53:30;39.47;;;34.10;;
31004;SDS011;17676;52.254;4.490;2024-03-06T07:55:57;39.45;;;35.35;;
31004;SDS011;17676;52.254;4.490;2024-03-06T07:58:24;37.97;;;33.83;;
31004;SDS011;17676;52.254;4.490;2024-03-06T08:00:51;37.25;;;33.20;;
31004;SDS011;17676;52.254;4.490;2024-03-06T08:03:23;38.88;;;32.88;;
31004;SDS011;17676;52.254;4.490;2024-03-06T08:05:51;38.30;;;33.80;;
31004;SDS011;17676;52.254;4.490;2024-03-06T08:08:19;37.08;;;33.17;;
31004;SDS011;17676;52.254;4.490;2024-03-06T08:10:47;42.35;;;34.22;;
31004;SDS011;17676;52.254;4.490;2024-03-06T08:13:13;39.33;;;33.88;;
31004;SDS011;17676;52.254;4.490;2024-03-06T08:15:40;36.85;;;32.95;;
31004;SDS011;17676;52.254;4.490;2024-03-06T08:18:10;36.60;;;32.60;;
31004;SDS011;17676;52.254;4.490;2024-03-06T08:20:37;36.05;;;32.15;;
31004;SDS011;17676;52.254;4.490;2024-03-06T08:23:04;38.05;;;34.05;;
31004;SDS011;17676;52.254;4.490;2024-03-06T08:25:31;39.00;;;34.42;;
31004;SDS011;17676;52.254;4.490;2024-03-06T08:27:59;38.70;;;34.60;;
31004;SDS011;17676;52.254;4.490;2024-03-06T08:30:25;40.08;;;34.30;;
31004;SDS011;17676;52.254;4.490;2024-03-06T08:32:52;36.65;;;32.92;;
31004;SDS011;17676;52.254;4.490;2024-03-06T08:35:19;36.33;;;32.40;;
31004;SDS011;17676;52.254;4.490;2024-03-06T08:37:47;35.67;;;30.75;;
31004;SDS011;17676;52.254;4.490;2024-03-06T08:40:15;34.38;;;30.73;;
31004;SDS011;17676;52.254;4.490;2024-03-06T08:42:44;32.38;;;29.05;;
31004;SDS011;17676;52.254;4.490;2024-03-06T08:45:11;31.95;;;28.75;;
31004;SDS011;17676;52.254;4.490;2024-03-06T08:47:38;30.52;;;27.60;;
31004;SDS011;17676;52.254;4.490;2024-03-06T08:50:05;28.95;;;26.08;;
31004;SDS011;17676;52.254;4.490;2024-03-06T08:52:34;30.33;;;27.13;;
31004;SDS011;17676;52.254;4.490;2024-03-06T08:55:01;30.25;;;27.17;;
31004;SDS011;17676;52.254;4.490;2024-03-06T08:57:30;29.50;;;26.30;;
31004;SDS011;17676;52.254;4.490;2024-03-06T08:59:57;28.40;;;25.42;;
31004;SDS011;17676;52.254;4.490;2024-03-06T09:02:24;29.33;;;26.30;;
31004;SDS011;17676;52.254;4.490;2024-03-06T09:04:52;30.05;;;26.85;;
31004;SDS011;17676;52.254;4.490;2024-03-06T09:07:19;28.08;;;25.40;;
31004;SDS011;17676;52.254;4.490;2024-03-06T09:09:46;29.17;;;26.27;;
31004;SDS011;17676;52.254;4.490;2024-03-06T09:12:12;27.38;;;24.58;;
31004;SDS011;17676;52.254;4.490;2024-03-06T09:14:40;27.45;;;24.55;;
31004;SDS011;17676;52.254;4.490;2024-03-06T09:17:08;26.20;;;23.58;;
31004;SDS011;17676;52.254;4.490;2024-03-06T09:19:41;27.05;;;24.30;;
31004;SDS011;17676;52.254;4.490;2024-03-06T09:22:28;25.60;;;23.15;;
31004;SDS011;17676;52.254;4.490;2024-03-06T09:24:55;25.80;;;23.38;;
31004;SDS011;17676;52.254;4.490;2024-03-06T09:27:22;25.52;;;23.13;;
31004;SDS011;17676;52.254;4.490;2024-03-06T09:29:49;25.05;;;22.42;;
31004;SDS011;17676;52.254;4.490;2024-03-06T09:32:16;23.33;;;21.02;;
31004;SDS011;17676;52.254;4.490;2024-03-06T09:34:45;22.77;;;20.60;;
31004;SDS011;17676;52.254;4.490;2024-03-06T09:37:12;20.60;;;18.55;;
31004;SDS011;17676;52.254;4.490;2024-03-06T09:39:38;21.45;;;19.35;;
31004;SDS011;17676;52.254;4.490;2024-03-06T09:42:05;21.98;;;19.30;;
31004;SDS011;17676;52.254;4.490;2024-03-06T09:44:32;21.27;;;19.23;;
31004;SDS011;17676;52.254;4.490;2024-03-06T09:47:02;17.52;;;15.93;;
31004;SDS011;17676;52.254;4.490;2024-03-06T09:49:30;19.55;;;17.65;;
31004;SDS011;17676;52.254;4.490;2024-03-06T09:51:58;20.55;;;18.75;;
31004;SDS011;17676;52.254;4.490;2024-03-06T09:54:26;20.48;;;18.33;;
31004;SDS011;17676;52.254;4.490;2024-03-06T09:56:54;17.25;;;15.65;;
31004;SDS011;17676;52.254;4.490;2024-03-06T09:59:22;17.38;;;15.65;;
31004;SDS011;17676;52.254;4.490;2024-03-06T10:04:26;17.52;;;15.95;;
31004;SDS011;17676;52.254;4.490;2024-03-06T10:06:57;18.00;;;16.40;;
31004;SDS011;17676;52.254;4.490;2024-03-06T10:09:25;17.42;;;15.88;;
31004;SDS011;17676;52.254;4.490;2024-03-06T10:11:53;17.70;;;16.00;;
31004;SDS011;17676;52.254;4.490;2024-03-06T10:14:22;18.10;;;16.50;;
31004;SDS011;17676;52.254;4.490;2024-03-06T10:16:53;17.85;;;16.15;;
31004;SDS011;17676;52.254;4.490;2024-03-06T10:19:25;16.73;;;15.18;;
31004;SDS011;17676;52.254;4.490;2024-03-06T10:21:56;15.23;;;13.93;;
31004;SDS011;17676;52.254;4.490;2024-03-06T10:24:25;14.77;;;13.55;;
31004;SDS011;17676;52.254;4.490;2024-03-06T10:26:56;14.95;;;13.70;;
31004;SDS011;17676;52.254;4.490;2024-03-06T10:29:26;14.55;;;13.35;;
31004;SDS011;17676;52.254;4.490;2024-03-06T10:31:56;14.77;;;13.48;;
31004;SDS011;17676;52.254;4.490;2024-03-06T10:34:26;14.13;;;12.93;;
31004;SDS011;17676;52.254;4.490;2024-03-06T10:36:59;10.75;;;9.85;;
31004;SDS011;17676;52.254;4.490;2024-03-06T10:39:27;12.43;;;11.38;;
31004;SDS011;17676;52.254;4.490;2024-03-06T10:41:57;11.68;;;10.68;;
31004;SDS011;17676;52.254;4.490;2024-03-06T10:44:25;9.90;;;9.20;;
31004;SDS011;17676;52.254;4.490;2024-03-06T10:46:59;9.50;;;8.60;;
31004;SDS011;17676;52.254;4.490;2024-03-06T10:49:28;9.88;;;9.07;;
31004;SDS011;17676;52.254;4.490;2024-03-06T10:52:00;9.32;;;8.52;;
31004;SDS011;17676;52.254;4.490;2024-03-06T10:54:29;9.43;;;8.63;;
31004;SDS011;17676;52.254;4.490;2024-03-06T10:56:57;9.85;;;8.98;;
31004;SDS011;17676;52.254;4.490;2024-03-06T10:59:27;9.85;;;8.98;;
31004;SDS011;17676;52.254;4.490;2024-03-06T11:01:58;10.43;;;9.63;;
31004;SDS011;17676;52.254;4.490;2024-03-06T11:04:29;10.65;;;9.50;;
31004;SDS011;17676;52.254;4.490;2024-03-06T11:07:01;9.68;;;8.85;;
31004;SDS011;17676;52.254;4.490;2024-03-06T11:09:36;10.60;;;9.70;;
31004;SDS011;17676;52.254;4.490;2024-03-06T11:12:06;9.43;;;8.57;;
31004;SDS011;17676;52.254;4.490;2024-03-06T11:14:37;10.38;;;9.40;;
31004;SDS011;17676;52.254;4.490;2024-03-06T11:17:09;10.02;;;9.23;;
31004;SDS011;17676;52.254;4.490;2024-03-06T11:28:17;11.40;;;10.48;;
31004;SDS011;17676;52.254;4.490;2024-03-06T11:30:45;11.73;;;10.55;;
31004;SDS011;17676;52.254;4.490;2024-03-06T11:33:16;12.35;;;10.30;;
31004;SDS011;17676;52.254;4.490;2024-03-06T11:38:53;11.25;;;10.27;;
31004;SDS011;17676;52.254;4.490;2024-03-06T11:41:20;10.90;;;9.77;;
31004;SDS011;17676;52.254;4.490;2024-03-06T11:43:52;9.95;;;9.15;;
31004;SDS011;17676;52.254;4.490;2024-03-06T11:46:20;9.20;;;8.43;;
31004;SDS011;17676;52.254;4.490;2024-03-06T11:48:51;7.18;;;6.57;;
31004;SDS011;17676;52.254;4.490;2024-03-06T11:51:22;8.38;;;7.63;;
31004;SDS011;17676;52.254;4.490;2024-03-06T11:53:50;9.15;;;8.35;;
31004;SDS011;17676;52.254;4.490;2024-03-06T11:56:20;8.65;;;7.90;;
31004;SDS011;17676;52.254;4.490;2024-03-06T11:58:47;8.05;;;7.35;;
31004;SDS011;17676;52.254;4.490;2024-03-06T12:01:15;7.45;;;6.85;;
31004;SDS011;17676;52.254;4.490;2024-03-06T12:03:45;7.65;;;7.00;;
31004;SDS011;17676;52.254;4.490;2024-03-06T12:06:13;7.25;;;6.55;;
31004;SDS011;17676;52.254;4.490;2024-03-06T12:08:43;6.47;;;5.97;;
31004;SDS011;17676;52.254;4.490;2024-03-06T12:11:10;7.18;;;6.47;;
31004;SDS011;17676;52.254;4.490;2024-03-06T12:13:36;8.40;;;7.60;;
31004;SDS011;17676;52.254;4.490;2024-03-06T12:16:04;7.18;;;6.53;;
31004;SDS011;17676;52.254;4.490;2024-03-06T12:18:33;7.18;;;6.38;;
31004;SDS011;17676;52.254;4.490;2024-03-06T12:21:01;6.80;;;6.20;;
31004;SDS011;17676;52.254;4.490;2024-03-06T12:23:29;6.53;;;5.93;;
31004;SDS011;17676;52.254;4.490;2024-03-06T12:26:03;6.13;;;4.32;;
31004;SDS011;17676;52.254;4.490;2024-03-06T12:28:32;5.53;;;3.90;;
31004;SDS011;17676;52.254;4.490;2024-03-06T12:30:58;5.25;;;4.78;;
31004;SDS011;17676;52.254;4.490;2024-03-06T12:33:29;6.97;;;2.13;;
31004;SDS011;17676;52.254;4.490;2024-03-06T12:36:05;9.68;;;4.70;;
31004;SDS011;17676;52.254;4.490;2024-03-06T12:38:37;8.40;;;7.38;;
31004;SDS011;17676;52.254;4.490;2024-03-06T12:41:04;9.43;;;8.63;;
31004;SDS011;17676;52.254;4.490;2024-03-06T12:43:32;12.35;;;8.18;;
31004;SDS011;17676;52.254;4.490;2024-03-06T12:46:01;16.40;;;7.80;;
31004;SDS011;17676;52.254;4.490;2024-03-06T12:48:31;11.98;;;6.65;;
31004;SDS011;17676;52.254;4.490;2024-03-06T12:50:58;20.75;;;8.27;;
31004;SDS011;17676;52.254;4.490;2024-03-06T12:53:31;9.43;;;6.97;;
31004;SDS011;17676;52.254;4.490;2024-03-06T12:56:01;8.88;;;7.30;;
31004;SDS011;17676;52.254;4.490;2024-03-06T12:58:29;9.52;;;8.00;;
31004;SDS011;17676;52.254;4.490;2024-03-06T13:00:57;28.95;;;25.98;;
31004;SDS011;17676;52.254;4.490;2024-03-06T13:03:25;26.33;;;23.60;;
31004;SDS011;17676;52.254;4.490;2024-03-06T13:05:51;24.63;;;22.20;;
31004;SDS011;17676;52.254;4.490;2024-03-06T13:08:18;25.45;;;22.77;;
31004;SDS011;17676;52.254;4.490;2024-03-06T13:10:45;23.23;;;21.02;;
31004;SDS011;17676;52.254;4.490;2024-03-06T13:13:11;25.02;;;22.60;;
31004;SDS011;17676;52.254;4.490;2024-03-06T13:15:38;25.25;;;22.73;;
31004;SDS011;17676;52.254;4.490;2024-03-06T13:18:05;25.00;;;22.65;;
31004;SDS011;17676;52.254;4.490;2024-03-06T13:20:33;27.58;;;24.80;;
31004;SDS011;17676;52.254;4.490;2024-03-06T13:23:00;25.08;;;22.67;;
31004;SDS011;17676;52.254;4.490;2024-03-06T13:25:27;25.63;;;23.13;;
31004;SDS011;17676;52.254;4.490;2024-03-06T13:27:55;25.67;;;23.17;;
31004;SDS011;17676;52.254;4.490;2024-03-06T13:30:21;24.20;;;21.85;;
31004;SDS011;17676;52.254;4.490;2024-03-06T13:32:49;22.83;;;20.48;;
31004;SDS011;17676;52.254;4.490;2024-03-06T13:35:16;25.90;;;22.98;;
31004;SDS011;17676;52.254;4.490;2024-03-06T13:37:43;24.88;;;22.40;;
31004;SDS011;17676;52.254;4.490;2024-03-06T13:40:10;21.50;;;19.33;;
31004;SDS011;17676;52.254;4.490;2024-03-06T13:42:39;22.45;;;20.35;;
31004;SDS011;17676;52.254;4.490;2024-03-06T13:45:07;21.67;;;19.52;;
31004;SDS011;17676;52.254;4.490;2024-03-06T13:47:41;22.08;;;19.88;;
31004;SDS011;17676;52.254;4.490;2024-03-06T13:50:19;20.15;;;18.17;;
31004;SDS011;17676;52.254;4.490;2024-03-06T13:52:46;19.95;;;18.13;;
31004;SDS011;17676;52.254;4.490;2024-03-06T13:55:12;19.02;;;17.23;;
31004;SDS011;17676;52.254;4.490;2024-03-06T13:57:39;20.73;;;18.63;;
31004;SDS011;17676;52.254;4.490;2024-03-06T14:00:06;19.70;;;17.70;;
31004;SDS011;17676;52.254;4.490;2024-03-06T14:02:44;19.95;;;17.85;;
31004;SDS011;17676;52.254;4.490;2024-03-06T14:05:14;19.27;;;17.55;;
31004;SDS011;17676;52.254;4.490;2024-03-06T14:07:41;16.92;;;15.32;;
31004;SDS011;17676;52.254;4.490;2024-03-06T14:10:08;18.17;;;16.27;;
31004;SDS011;17676;52.254;4.490;2024-03-06T14:12:37;21.80;;;19.60;;
31004;SDS011;17676;52.254;4.490;2024-03-06T14:15:05;27.83;;;25.00;;
31004;SDS011;17676;52.254;4.490;2024-03-06T14:17:35;25.98;;;23.27;;
31004;SDS011;17676;52.254;4.490;2024-03-06T14:20:02;23.77;;;21.50;;
31004;SDS011;17676;52.254;4.490;2024-03-06T14:22:29;16.83;;;14.32;;
31004;SDS011;17676;52.254;4.490;2024-03-06T14:24:56;14.80;;;12.85;;
31004;SDS011;17676;52.254;4.490;2024-03-06T14:27:23;12.20;;;11.00;;
31004;SDS011;17676;52.254;4.490;2024-03-06T14:29:50;11.15;;;10.07;;
31004;SDS011;17676;52.254;4.490;2024-03-06T14:32:18;12.75;;;10.00;;
31004;SDS011;17676;52.254;4.490;2024-03-06T14:34:45;23.48;;;20.92;;
31004;SDS011;17676;52.254;4.490;2024-03-06T14:37:12;25.65;;;23.02;;
31004;SDS011;17676;52.254;4.490;2024-03-06T14:39:39;29.17;;;26.08;;
31004;SDS011;17676;52.254;4.490;2024-03-06T14:42:06;28.77;;;25.73;;
31004;SDS011;17676;52.254;4.490;2024-03-06T14:44:33;28.55;;;25.70;;
31004;SDS011;17676;52.254;4.490;2024-03-06T14:47:00;29.70;;;26.70;;
31004;SDS011;17676;52.254;4.490;2024-03-06T14:49:27;28.23;;;25.33;;